sensor_id;sensor_type;location;lat;lon;timestamp;P1;durP1;ratioP1;P2;durP2;ratioP2
35518;SDS011;21627;48.216;16.482;2023-04-08T00:01:25;18.00;;;10.90;;
35518;SDS011;21627;48.216;16.482;2023-04-08T00:03:52;17.13;;;10.98;;
35518;SDS011;21627;48.216;16.482;2023-04-08T00:06:20;16.23;;;10.48;;
35518;SDS011;21627;48.216;16.482;2023-04-08T00:08:47;15.98;;;10.70;;
35518;SDS011;21627;48.216;16.482;2023-04-08T00:11:14;18.10;;;10.80;;
35518;SDS011;21627;48.216;16.482;2023-04-08T00:13:41;16.67;;;10.70;;
35518;SDS011;21627;48.216;16.482;2023-04-08T00:16:09;15.70;;;9.90;;
35518;SDS011;21627;48.216;16.482;2023-04-08T00:18:36;17.75;;;11.10;;
35518;SDS011;21627;48.216;16.482;2023-04-08T00:21:03;13.70;;;9.10;;
35518;SDS011;21627;48.216;16.482;2023-04-08T00:23:34;10.73;;;6.47;;
35518;SDS011;21627;48.216;16.482;2023-04-08T00:26:01;13.32;;;6.97;;
35518;SDS011;21627;48.216;16.482;2023-04-08T00:28:29;10.27;;;6.65;;
35518;SDS011;21627;48.216;16.482;2023-04-08T00:30:57;10.48;;;5.95;;
35518;SDS011;21627;48.216;16.482;2023-04-08T00:33:24;7.95;;;5.70;;
35518;SDS011;21627;48.216;16.482;2023-04-08T00:35:51;9.63;;;6.50;;
35518;SDS011;21627;48.216;16.482;2023-04-08T00:38:19;10.07;;;6.63;;
35518;SDS011;21627;48.216;16.482;2023-04-08T00:40:46;8.50;;;5.88;;
35518;SDS011;21627;48.216;16.482;2023-04-08T00:43:13;7.53;;;5.63;;
35518;SDS011;21627;48.216;16.482;2023-04-08T00:45:41;11.60;;;6.32;;
35518;SDS011;21627;48.216;16.482;2023-04-08T00:48:09;7.63;;;5.63;;
35518;SDS011;21627;48.216;16.482;2023-04-08T00:50:36;9.18;;;5.90;;
35518;SDS011;21627;48.216;16.482;2023-04-08T00:53:03;9.75;;;5.40;;
35518;SDS011;21627;48.216;16.482;2023-04-08T00:55:30;7.05;;;5.13;;
35518;SDS011;21627;48.216;16.482;2023-04-08T00:57:57;5.75;;;4.07;;
35518;SDS011;21627;48.216;16.482;2023-04-08T01:00:25;6.05;;;3.88;;
35518;SDS011;21627;48.216;16.482;2023-04-08T01:08:29;3.97;;;3.20;;
35518;SDS011;21627;48.216;16.482;2023-04-08T01:10:58;5.17;;;3.60;;
35518;SDS011;21627;48.216;16.482;2023-04-08T01:13:29;6.70;;;3.20;;
35518;SDS011;21627;48.216;16.482;2023-04-08T01:16:02;3.20;;;2.70;;
35518;SDS011;21627;48.216;16.482;2023-04-08T01:18:30;5.00;;;3.00;;
35518;SDS011;21627;48.216;16.482;2023-04-08T01:21:00;4.50;;;2.90;;
35518;SDS011;21627;48.216;16.482;2023-04-08T01:23:42;4.63;;;3.30;;
35518;SDS011;21627;48.216;16.482;2023-04-08T01:26:34;4.73;;;2.90;;
35518;SDS011;21627;48.216;16.482;2023-04-08T01:29:02;6.23;;;3.40;;
35518;SDS011;21627;48.216;16.482;2023-04-08T01:31:31;11.97;;;5.40;;
35518;SDS011;21627;48.216;16.482;2023-04-08T01:33:58;34.87;;;16.50;;
35518;SDS011;21627;48.216;16.482;2023-04-08T01:36:29;12.70;;;7.20;;
35518;SDS011;21627;48.216;16.482;2023-04-08T01:38:59;20.87;;;10.10;;
35518;SDS011;21627;48.216;16.482;2023-04-08T01:41:31;8.13;;;4.83;;
35518;SDS011;21627;48.216;16.482;2023-04-08T01:44:02;4.90;;;3.73;;
35518;SDS011;21627;48.216;16.482;2023-04-08T01:46:30;6.63;;;4.07;;
35518;SDS011;21627;48.216;16.482;2023-04-08T01:48:58;4.77;;;3.50;;
35518;SDS011;21627;48.216;16.482;2023-04-08T01:51:27;5.67;;;4.27;;
35518;SDS011;21627;48.216;16.482;2023-04-08T01:53:57;4.63;;;3.67;;
35518;SDS011;21627;48.216;16.482;2023-04-08T01:56:24;4.80;;;3.57;;
35518;SDS011;21627;48.216;16.482;2023-04-08T01:58:56;5.63;;;3.97;;
35518;SDS011;21627;48.216;16.482;2023-04-08T02:01:26;6.97;;;4.47;;
35518;SDS011;21627;48.216;16.482;2023-04-08T02:03:56;6.37;;;4.77;;
35518;SDS011;21627;48.216;16.482;2023-04-08T02:06:24;10.13;;;5.40;;
35518;SDS011;21627;48.216;16.482;2023-04-08T02:08:54;6.40;;;5.37;;
35518;SDS011;21627;48.216;16.482;2023-04-08T02:11:22;7.60;;;5.27;;
35518;SDS011;21627;48.216;16.482;2023-04-08T02:13:50;7.10;;;5.20;;
35518;SDS011;21627;48.216;16.482;2023-04-08T02:16:21;9.07;;;5.23;;
35518;SDS011;21627;48.216;16.482;2023-04-08T02:19:34;6.80;;;4.60;;
35518;SDS011;21627;48.216;16.482;2023-04-08T02:21:45;7.90;;;4.93;;
35518;SDS011;21627;48.216;16.482;2023-04-08T02:24:17;9.07;;;5.20;;
35518;SDS011;21627;48.216;16.482;2023-04-08T02:26:48;8.53;;;5.30;;
35518;SDS011;21627;48.216;16.482;2023-04-08T02:29:19;6.60;;;4.33;;
35518;SDS011;21627;48.216;16.482;2023-04-08T02:31:47;9.10;;;5.50;;
35518;SDS011;21627;48.216;16.482;2023-04-08T02:34:15;8.03;;;4.97;;
35518;SDS011;21627;48.216;16.482;2023-04-08T02:36:47;8.27;;;5.53;;
35518;SDS011;21627;48.216;16.482;2023-04-08T02:39:16;9.23;;;5.57;;
35518;SDS011;21627;48.216;16.482;2023-04-08T02:41:43;10.37;;;6.50;;
35518;SDS011;21627;48.216;16.482;2023-04-08T02:44:13;16.27;;;8.70;;
35518;SDS011;21627;48.216;16.482;2023-04-08T02:46:40;25.83;;;13.13;;
35518;SDS011;21627;48.216;16.482;2023-04-08T02:49:07;28.27;;;15.30;;
35518;SDS011;21627;48.216;16.482;2023-04-08T02:51:34;38.70;;;19.47;;
35518;SDS011;21627;48.216;16.482;2023-04-08T02:54:02;29.77;;;16.80;;
35518;SDS011;21627;48.216;16.482;2023-04-08T02:56:29;28.43;;;14.73;;
35518;SDS011;21627;48.216;16.482;2023-04-08T02:58:56;24.03;;;13.03;;
35518;SDS011;21627;48.216;16.482;2023-04-08T03:01:23;14.37;;;8.87;;
35518;SDS011;21627;48.216;16.482;2023-04-08T03:03:50;11.30;;;7.33;;
35518;SDS011;21627;48.216;16.482;2023-04-08T03:06:17;11.13;;;7.90;;
35518;SDS011;21627;48.216;16.482;2023-04-08T03:08:45;9.80;;;6.87;;
35518;SDS011;21627;48.216;16.482;2023-04-08T03:11:12;10.57;;;7.27;;
35518;SDS011;21627;48.216;16.482;2023-04-08T03:13:39;8.63;;;6.33;;
35518;SDS011;21627;48.216;16.482;2023-04-08T03:16:06;10.03;;;6.10;;
35518;SDS011;21627;48.216;16.482;2023-04-08T03:18:33;9.07;;;6.67;;
35518;SDS011;21627;48.216;16.482;2023-04-08T03:21:00;9.40;;;6.13;;
35518;SDS011;21627;48.216;16.482;2023-04-08T03:23:28;7.43;;;5.70;;
35518;SDS011;21627;48.216;16.482;2023-04-08T03:25:55;11.67;;;7.57;;
35518;SDS011;21627;48.216;16.482;2023-04-08T03:28:23;7.17;;;5.33;;
35518;SDS011;21627;48.216;16.482;2023-04-08T03:30:50;9.30;;;6.17;;
35518;SDS011;21627;48.216;16.482;2023-04-08T03:33:17;7.20;;;5.43;;
35518;SDS011;21627;48.216;16.482;2023-04-08T03:35:45;7.83;;;5.57;;
35518;SDS011;21627;48.216;16.482;2023-04-08T03:38:12;7.67;;;5.70;;
35518;SDS011;21627;48.216;16.482;2023-04-08T03:40:39;7.83;;;5.67;;
35518;SDS011;21627;48.216;16.482;2023-04-08T03:43:06;7.80;;;5.57;;
35518;SDS011;21627;48.216;16.482;2023-04-08T03:45:34;9.13;;;5.70;;
35518;SDS011;21627;48.216;16.482;2023-04-08T03:48:01;6.73;;;5.20;;
35518;SDS011;21627;48.216;16.482;2023-04-08T03:50:29;7.67;;;5.57;;
35518;SDS011;21627;48.216;16.482;2023-04-08T03:52:56;7.30;;;5.07;;
35518;SDS011;21627;48.216;16.482;2023-04-08T03:55:23;9.63;;;6.20;;
35518;SDS011;21627;48.216;16.482;2023-04-08T03:57:50;7.93;;;5.80;;
35518;SDS011;21627;48.216;16.482;2023-04-08T04:00:18;8.77;;;5.77;;
35518;SDS011;21627;48.216;16.482;2023-04-08T04:02:45;7.87;;;5.47;;
35518;SDS011;21627;48.216;16.482;2023-04-08T04:05:12;7.47;;;5.07;;
35518;SDS011;21627;48.216;16.482;2023-04-08T04:07:39;6.23;;;4.97;;
35518;SDS011;21627;48.216;16.482;2023-04-08T04:10:06;8.93;;;5.20;;
35518;SDS011;21627;48.216;16.482;2023-04-08T04:12:35;6.60;;;4.87;;
35518;SDS011;21627;48.216;16.482;2023-04-08T04:15:03;7.90;;;5.40;;
35518;SDS011;21627;48.216;16.482;2023-04-08T04:17:30;8.10;;;5.77;;
35518;SDS011;21627;48.216;16.482;2023-04-08T04:19:58;7.50;;;5.20;;
35518;SDS011;21627;48.216;16.482;2023-04-08T04:22:25;7.93;;;5.10;;
35518;SDS011;21627;48.216;16.482;2023-04-08T04:24:52;8.03;;;6.00;;
35518;SDS011;21627;48.216;16.482;2023-04-08T04:27:19;7.97;;;5.40;;
35518;SDS011;21627;48.216;16.482;2023-04-08T04:29:46;6.63;;;5.37;;
35518;SDS011;21627;48.216;16.482;2023-04-08T04:32:13;7.10;;;5.47;;
35518;SDS011;21627;48.216;16.482;2023-04-08T04:34:41;10.70;;;5.80;;
35518;SDS011;21627;48.216;16.482;2023-04-08T04:37:09;8.60;;;5.30;;
35518;SDS011;21627;48.216;16.482;2023-04-08T04:39:37;7.13;;;5.70;;
35518;SDS011;21627;48.216;16.482;2023-04-08T04:42:04;6.77;;;5.27;;
35518;SDS011;21627;48.216;16.482;2023-04-08T04:44:31;10.07;;;5.37;;
35518;SDS011;21627;48.216;16.482;2023-04-08T04:46:59;6.97;;;5.30;;
35518;SDS011;21627;48.216;16.482;2023-04-08T04:49:26;7.63;;;5.60;;
35518;SDS011;21627;48.216;16.482;2023-04-08T04:51:53;8.53;;;6.00;;
35518;SDS011;21627;48.216;16.482;2023-04-08T04:54:20;8.13;;;5.00;;
35518;SDS011;21627;48.216;16.482;2023-04-08T04:56:47;7.80;;;5.67;;
35518;SDS011;21627;48.216;16.482;2023-04-08T04:59:14;7.23;;;5.00;;
35518;SDS011;21627;48.216;16.482;2023-04-08T05:01:41;7.93;;;5.27;;
35518;SDS011;21627;48.216;16.482;2023-04-08T05:04:09;7.17;;;5.87;;
35518;SDS011;21627;48.216;16.482;2023-04-08T05:06:36;7.13;;;5.60;;
35518;SDS011;21627;48.216;16.482;2023-04-08T05:09:03;7.80;;;6.20;;
35518;SDS011;21627;48.216;16.482;2023-04-08T05:11:30;7.47;;;5.67;;
35518;SDS011;21627;48.216;16.482;2023-04-08T05:13:57;7.97;;;6.10;;
35518;SDS011;21627;48.216;16.482;2023-04-08T05:16:24;9.70;;;6.80;;
35518;SDS011;21627;48.216;16.482;2023-04-08T05:18:55;10.57;;;6.73;;
35518;SDS011;21627;48.216;16.482;2023-04-08T05:21:22;7.83;;;6.13;;
35518;SDS011;21627;48.216;16.482;2023-04-08T05:23:49;11.43;;;6.87;;
35518;SDS011;21627;48.216;16.482;2023-04-08T05:26:21;9.37;;;6.37;;
35518;SDS011;21627;48.216;16.482;2023-04-08T05:28:49;9.93;;;6.00;;
35518;SDS011;21627;48.216;16.482;2023-04-08T05:31:17;8.97;;;6.87;;
35518;SDS011;21627;48.216;16.482;2023-04-08T05:33:46;9.43;;;6.50;;
35518;SDS011;21627;48.216;16.482;2023-04-08T05:36:13;8.73;;;5.93;;
35518;SDS011;21627;48.216;16.482;2023-04-08T05:38:40;10.63;;;6.37;;
35518;SDS011;21627;48.216;16.482;2023-04-08T05:41:09;10.43;;;7.37;;
35518;SDS011;21627;48.216;16.482;2023-04-08T05:43:36;9.20;;;6.77;;
35518;SDS011;21627;48.216;16.482;2023-04-08T05:46:07;9.80;;;7.37;;
35518;SDS011;21627;48.216;16.482;2023-04-08T05:48:35;9.97;;;7.30;;
35518;SDS011;21627;48.216;16.482;2023-04-08T05:51:02;12.80;;;8.27;;
35518;SDS011;21627;48.216;16.482;2023-04-08T05:53:29;10.77;;;7.63;;
35518;SDS011;21627;48.216;16.482;2023-04-08T05:55:56;13.03;;;8.20;;
35518;SDS011;21627;48.216;16.482;2023-04-08T05:58:24;12.60;;;8.20;;
35518;SDS011;21627;48.216;16.482;2023-04-08T06:00:51;13.93;;;7.63;;
35518;SDS011;21627;48.216;16.482;2023-04-08T06:03:18;10.07;;;7.73;;
35518;SDS011;21627;48.216;16.482;2023-04-08T06:05:46;12.77;;;7.70;;
35518;SDS011;21627;48.216;16.482;2023-04-08T06:08:13;13.23;;;8.07;;
35518;SDS011;21627;48.216;16.482;2023-04-08T06:10:47;12.30;;;8.13;;
35518;SDS011;21627;48.216;16.482;2023-04-08T06:13:17;12.87;;;7.93;;
35518;SDS011;21627;48.216;16.482;2023-04-08T06:15:47;14.27;;;9.03;;
35518;SDS011;21627;48.216;16.482;2023-04-08T06:18:15;13.47;;;8.97;;
35518;SDS011;21627;48.216;16.482;2023-04-08T06:20:42;14.20;;;8.93;;
35518;SDS011;21627;48.216;16.482;2023-04-08T06:23:10;13.60;;;9.67;;
35518;SDS011;21627;48.216;16.482;2023-04-08T06:25:37;14.47;;;9.53;;
35518;SDS011;21627;48.216;16.482;2023-04-08T06:28:05;13.20;;;9.40;;
35518;SDS011;21627;48.216;16.482;2023-04-08T06:30:32;15.70;;;9.77;;
35518;SDS011;21627;48.216;16.482;2023-04-08T06:32:59;16.40;;;10.13;;
35518;SDS011;21627;48.216;16.482;2023-04-08T06:35:26;15.67;;;10.70;;
35518;SDS011;21627;48.216;16.482;2023-04-08T06:37:53;13.80;;;9.90;;
35518;SDS011;21627;48.216;16.482;2023-04-08T06:40:20;14.97;;;11.03;;
35518;SDS011;21627;48.216;16.482;2023-04-08T06:42:48;13.20;;;9.53;;
35518;SDS011;21627;48.216;16.482;2023-04-08T06:45:15;15.03;;;9.67;;
35518;SDS011;21627;48.216;16.482;2023-04-08T06:47:42;13.97;;;9.47;;
35518;SDS011;21627;48.216;16.482;2023-04-08T06:50:09;11.77;;;8.93;;
35518;SDS011;21627;48.216;16.482;2023-04-08T06:52:36;14.37;;;9.57;;
35518;SDS011;21627;48.216;16.482;2023-04-08T06:55:03;16.57;;;9.43;;
35518;SDS011;21627;48.216;16.482;2023-04-08T06:57:31;15.03;;;10.50;;
35518;SDS011;21627;48.216;16.482;2023-04-08T06:59:59;13.63;;;9.50;;
35518;SDS011;21627;48.216;16.482;2023-04-08T07:02:26;13.57;;;8.77;;
35518;SDS011;21627;48.216;16.482;2023-04-08T07:04:53;13.07;;;9.07;;
35518;SDS011;21627;48.216;16.482;2023-04-08T07:07:20;11.83;;;8.60;;
35518;SDS011;21627;48.216;16.482;2023-04-08T07:09:49;11.67;;;8.63;;
35518;SDS011;21627;48.216;16.482;2023-04-08T07:12:17;14.57;;;9.70;;
35518;SDS011;21627;48.216;16.482;2023-04-08T07:14:44;15.27;;;10.03;;
35518;SDS011;21627;48.216;16.482;2023-04-08T07:17:12;13.43;;;9.07;;
35518;SDS011;21627;48.216;16.482;2023-04-08T07:19:39;17.33;;;9.67;;
35518;SDS011;21627;48.216;16.482;2023-04-08T07:22:06;14.33;;;9.43;;
35518;SDS011;21627;48.216;16.482;2023-04-08T07:24:33;14.40;;;9.33;;
35518;SDS011;21627;48.216;16.482;2023-04-08T07:27:00;12.43;;;8.87;;
35518;SDS011;21627;48.216;16.482;2023-04-08T07:29:27;14.43;;;9.70;;
35518;SDS011;21627;48.216;16.482;2023-04-08T07:31:54;14.23;;;9.03;;
35518;SDS011;21627;48.216;16.482;2023-04-08T07:34:21;15.33;;;9.83;;
35518;SDS011;21627;48.216;16.482;2023-04-08T07:36:49;16.67;;;11.00;;
35518;SDS011;21627;48.216;16.482;2023-04-08T07:39:16;15.13;;;10.03;;
35518;SDS011;21627;48.216;16.482;2023-04-08T07:41:43;15.23;;;9.73;;
35518;SDS011;21627;48.216;16.482;2023-04-08T07:44:10;17.53;;;10.27;;
35518;SDS011;21627;48.216;16.482;2023-04-08T07:46:39;16.70;;;10.73;;
35518;SDS011;21627;48.216;16.482;2023-04-08T07:49:08;16.48;;;10.02;;
35518;SDS011;21627;48.216;16.482;2023-04-08T07:51:35;16.50;;;9.63;;
35518;SDS011;21627;48.216;16.482;2023-04-08T07:54:02;16.10;;;10.20;;
35518;SDS011;21627;48.216;16.482;2023-04-08T07:56:29;14.17;;;10.43;;
35518;SDS011;21627;48.216;16.482;2023-04-08T07:58:57;19.30;;;10.40;;
35518;SDS011;21627;48.216;16.482;2023-04-08T08:01:24;15.30;;;9.60;;
35518;SDS011;21627;48.216;16.482;2023-04-08T08:03:53;17.98;;;10.85;;
35518;SDS011;21627;48.216;16.482;2023-04-08T08:06:20;18.90;;;10.23;;
35518;SDS011;21627;48.216;16.482;2023-04-08T08:08:48;19.60;;;11.40;;
35518;SDS011;21627;48.216;16.482;2023-04-08T08:11:15;18.45;;;10.73;;
35518;SDS011;21627;48.216;16.482;2023-04-08T08:13:42;23.08;;;11.27;;
35518;SDS011;21627;48.216;16.482;2023-04-08T08:16:09;20.40;;;11.50;;
35518;SDS011;21627;48.216;16.482;2023-04-08T08:18:38;16.67;;;9.60;;
35518;SDS011;21627;48.216;16.482;2023-04-08T08:21:06;19.73;;;10.75;;
35518;SDS011;21627;48.216;16.482;2023-04-08T08:23:34;18.77;;;11.47;;
35518;SDS011;21627;48.216;16.482;2023-04-08T08:26:03;21.60;;;12.10;;
35518;SDS011;21627;48.216;16.482;2023-04-08T08:28:35;21.65;;;11.05;;
35518;SDS011;21627;48.216;16.482;2023-04-08T08:31:04;19.80;;;11.03;;
35518;SDS011;21627;48.216;16.482;2023-04-08T08:33:31;23.70;;;11.25;;
35518;SDS011;21627;48.216;16.482;2023-04-08T08:35:59;18.70;;;12.32;;
35518;SDS011;21627;48.216;16.482;2023-04-08T08:38:27;22.90;;;11.90;;
35518;SDS011;21627;48.216;16.482;2023-04-08T08:40:54;19.75;;;11.55;;
35518;SDS011;21627;48.216;16.482;2023-04-08T08:43:26;19.90;;;12.05;;
35518;SDS011;21627;48.216;16.482;2023-04-08T08:45:54;22.35;;;11.75;;
35518;SDS011;21627;48.216;16.482;2023-04-08T08:48:21;25.13;;;13.00;;
35518;SDS011;21627;48.216;16.482;2023-04-08T08:50:49;20.27;;;12.23;;
35518;SDS011;21627;48.216;16.482;2023-04-08T08:53:17;22.30;;;12.13;;
35518;SDS011;21627;48.216;16.482;2023-04-08T08:55:45;22.45;;;12.52;;
35518;SDS011;21627;48.216;16.482;2023-04-08T08:58:33;23.98;;;13.88;;
35518;SDS011;21627;48.216;16.482;2023-04-08T09:01:00;21.70;;;11.97;;
35518;SDS011;21627;48.216;16.482;2023-04-08T09:03:27;22.17;;;11.90;;
35518;SDS011;21627;48.216;16.482;2023-04-08T09:05:59;24.85;;;12.40;;
35518;SDS011;21627;48.216;16.482;2023-04-08T09:10:54;25.45;;;12.73;;
35518;SDS011;21627;48.216;16.482;2023-04-08T09:13:35;24.15;;;13.18;;
35518;SDS011;21627;48.216;16.482;2023-04-08T09:16:03;23.73;;;12.97;;
35518;SDS011;21627;48.216;16.482;2023-04-08T09:18:35;22.98;;;12.57;;
35518;SDS011;21627;48.216;16.482;2023-04-08T09:21:04;24.17;;;12.50;;
35518;SDS011;21627;48.216;16.482;2023-04-08T09:26:35;20.48;;;11.98;;
35518;SDS011;21627;48.216;16.482;2023-04-08T09:31:54;23.75;;;13.25;;
35518;SDS011;21627;48.216;16.482;2023-04-08T09:34:27;25.33;;;14.07;;
35518;SDS011;21627;48.216;16.482;2023-04-08T09:36:57;26.65;;;13.70;;
35518;SDS011;21627;48.216;16.482;2023-04-08T09:39:24;23.95;;;12.95;;
35518;SDS011;21627;48.216;16.482;2023-04-08T09:41:52;23.43;;;13.60;;
35518;SDS011;21627;48.216;16.482;2023-04-08T09:44:23;23.25;;;12.00;;
35518;SDS011;21627;48.216;16.482;2023-04-08T09:47:15;22.08;;;12.73;;
35518;SDS011;21627;48.216;16.482;2023-04-08T09:49:50;24.63;;;13.40;;
35518;SDS011;21627;48.216;16.482;2023-04-08T09:52:24;27.55;;;14.15;;
35518;SDS011;21627;48.216;16.482;2023-04-08T09:55:11;34.05;;;15.52;;
35518;SDS011;21627;48.216;16.482;2023-04-08T09:57:51;25.55;;;14.25;;
35518;SDS011;21627;48.216;16.482;2023-04-08T10:00:33;27.38;;;14.88;;
35518;SDS011;21627;48.216;16.482;2023-04-08T10:03:21;26.70;;;15.38;;
35518;SDS011;21627;48.216;16.482;2023-04-08T10:05:55;23.88;;;14.85;;
35518;SDS011;21627;48.216;16.482;2023-04-08T10:08:23;29.02;;;15.05;;
35518;SDS011;21627;48.216;16.482;2023-04-08T10:10:53;27.10;;;14.75;;
35518;SDS011;21627;48.216;16.482;2023-04-08T10:13:21;24.73;;;14.15;;
35518;SDS011;21627;48.216;16.482;2023-04-08T10:16:26;26.23;;;15.02;;
35518;SDS011;21627;48.216;16.482;2023-04-08T10:18:52;29.50;;;15.75;;
35518;SDS011;21627;48.216;16.482;2023-04-08T10:21:37;28.33;;;15.83;;
35518;SDS011;21627;48.216;16.482;2023-04-08T10:24:13;29.60;;;16.55;;
35518;SDS011;21627;48.216;16.482;2023-04-08T10:26:41;30.52;;;17.27;;
35518;SDS011;21627;48.216;16.482;2023-04-08T10:31:44;36.80;;;17.92;;
35518;SDS011;21627;48.216;16.482;2023-04-08T10:34:15;35.90;;;17.43;;
35518;SDS011;21627;48.216;16.482;2023-04-08T10:36:44;31.70;;;16.60;;
35518;SDS011;21627;48.216;16.482;2023-04-08T10:39:15;30.80;;;16.55;;
35518;SDS011;21627;48.216;16.482;2023-04-08T10:41:46;27.77;;;16.48;;
35518;SDS011;21627;48.216;16.482;2023-04-08T10:44:24;31.75;;;19.05;;
35518;SDS011;21627;48.216;16.482;2023-04-08T10:46:53;33.13;;;18.77;;
35518;SDS011;21627;48.216;16.482;2023-04-08T10:49:21;29.92;;;16.83;;
35518;SDS011;21627;48.216;16.482;2023-04-08T10:51:48;30.10;;;16.27;;
35518;SDS011;21627;48.216;16.482;2023-04-08T10:54:16;29.13;;;16.10;;
35518;SDS011;21627;48.216;16.482;2023-04-08T10:56:50;33.05;;;17.50;;
35518;SDS011;21627;48.216;16.482;2023-04-08T10:59:28;24.70;;;15.02;;
35518;SDS011;21627;48.216;16.482;2023-04-08T11:01:58;29.65;;;14.68;;
35518;SDS011;21627;48.216;16.482;2023-04-08T11:04:27;28.67;;;15.48;;
35518;SDS011;21627;48.216;16.482;2023-04-08T11:06:54;28.33;;;15.35;;
35518;SDS011;21627;48.216;16.482;2023-04-08T11:09:21;26.00;;;15.07;;
35518;SDS011;21627;48.216;16.482;2023-04-08T11:11:48;20.63;;;13.25;;
35518;SDS011;21627;48.216;16.482;2023-04-08T11:14:17;20.70;;;12.43;;
35518;SDS011;21627;48.216;16.482;2023-04-08T11:16:47;21.23;;;11.60;;
35518;SDS011;21627;48.216;16.482;2023-04-08T11:19:14;19.58;;;11.88;;
35518;SDS011;21627;48.216;16.482;2023-04-08T11:21:42;25.17;;;14.18;;
35518;SDS011;21627;48.216;16.482;2023-04-08T11:24:09;22.88;;;14.13;;
35518;SDS011;21627;48.216;16.482;2023-04-08T11:26:37;27.25;;;14.23;;
35518;SDS011;21627;48.216;16.482;2023-04-08T11:29:05;23.73;;;13.77;;
35518;SDS011;21627;48.216;16.482;2023-04-08T11:31:39;22.92;;;14.05;;
35518;SDS011;21627;48.216;16.482;2023-04-08T11:34:09;23.00;;;13.18;;
35518;SDS011;21627;48.216;16.482;2023-04-08T11:36:38;21.52;;;13.88;;
35518;SDS011;21627;48.216;16.482;2023-04-08T11:39:10;20.25;;;12.60;;
35518;SDS011;21627;48.216;16.482;2023-04-08T11:41:38;20.50;;;12.90;;
35518;SDS011;21627;48.216;16.482;2023-04-08T11:44:06;24.02;;;13.57;;
35518;SDS011;21627;48.216;16.482;2023-04-08T11:46:34;23.92;;;13.90;;
35518;SDS011;21627;48.216;16.482;2023-04-08T11:49:02;18.60;;;11.88;;
35518;SDS011;21627;48.216;16.482;2023-04-08T11:51:32;21.23;;;13.45;;
35518;SDS011;21627;48.216;16.482;2023-04-08T11:54:04;20.73;;;12.85;;
35518;SDS011;21627;48.216;16.482;2023-04-08T11:56:43;20.02;;;13.07;;
35518;SDS011;21627;48.216;16.482;2023-04-08T11:59:12;20.40;;;12.73;;
35518;SDS011;21627;48.216;16.482;2023-04-08T12:01:39;18.80;;;13.07;;
35518;SDS011;21627;48.216;16.482;2023-04-08T12:04:10;18.98;;;12.07;;
35518;SDS011;21627;48.216;16.482;2023-04-08T12:06:37;19.92;;;11.98;;
35518;SDS011;21627;48.216;16.482;2023-04-08T12:09:04;19.83;;;11.98;;
35518;SDS011;21627;48.216;16.482;2023-04-08T12:11:33;18.33;;;12.02;;
35518;SDS011;21627;48.216;16.482;2023-04-08T12:14:00;17.35;;;11.85;;
35518;SDS011;21627;48.216;16.482;2023-04-08T12:16:28;19.85;;;11.90;;
35518;SDS011;21627;48.216;16.482;2023-04-08T12:18:55;17.83;;;10.63;;
35518;SDS011;21627;48.216;16.482;2023-04-08T12:21:22;18.13;;;11.25;;
35518;SDS011;21627;48.216;16.482;2023-04-08T12:23:49;15.35;;;10.00;;
35518;SDS011;21627;48.216;16.482;2023-04-08T12:26:18;15.20;;;10.75;;
35518;SDS011;21627;48.216;16.482;2023-04-08T12:28:46;14.45;;;9.80;;
35518;SDS011;21627;48.216;16.482;2023-04-08T12:31:13;13.32;;;9.60;;
35518;SDS011;21627;48.216;16.482;2023-04-08T12:33:40;14.38;;;8.80;;
35518;SDS011;21627;48.216;16.482;2023-04-08T12:36:07;14.32;;;9.00;;
35518;SDS011;21627;48.216;16.482;2023-04-08T12:38:37;11.88;;;7.95;;
35518;SDS011;21627;48.216;16.482;2023-04-08T12:41:04;10.57;;;7.95;;
35518;SDS011;21627;48.216;16.482;2023-04-08T12:43:33;11.55;;;7.95;;
35518;SDS011;21627;48.216;16.482;2023-04-08T12:46:00;12.13;;;8.23;;
35518;SDS011;21627;48.216;16.482;2023-04-08T12:48:28;10.65;;;7.20;;
35518;SDS011;21627;48.216;16.482;2023-04-08T12:50:55;9.20;;;6.85;;
35518;SDS011;21627;48.216;16.482;2023-04-08T12:53:24;8.85;;;7.07;;
35518;SDS011;21627;48.216;16.482;2023-04-08T12:55:51;10.30;;;6.47;;
35518;SDS011;21627;48.216;16.482;2023-04-08T12:58:23;12.00;;;6.35;;
35518;SDS011;21627;48.216;16.482;2023-04-08T13:00:53;8.80;;;6.95;;
35518;SDS011;21627;48.216;16.482;2023-04-08T13:03:20;8.15;;;6.50;;
35518;SDS011;21627;48.216;16.482;2023-04-08T13:05:47;8.90;;;7.65;;
35518;SDS011;21627;48.216;16.482;2023-04-08T13:08:15;7.07;;;5.85;;
35518;SDS011;21627;48.216;16.482;2023-04-08T13:10:42;9.15;;;6.78;;
35518;SDS011;21627;48.216;16.482;2023-04-08T13:13:10;7.43;;;5.93;;
35518;SDS011;21627;48.216;16.482;2023-04-08T13:15:39;7.28;;;5.75;;
35518;SDS011;21627;48.216;16.482;2023-04-08T13:18:06;7.95;;;5.80;;
35518;SDS011;21627;48.216;16.482;2023-04-08T13:20:34;10.57;;;8.55;;
35518;SDS011;21627;48.216;16.482;2023-04-08T13:23:02;10.18;;;7.40;;
35518;SDS011;21627;48.216;16.482;2023-04-08T13:25:29;9.07;;;5.93;;
35518;SDS011;21627;48.216;16.482;2023-04-08T13:27:56;8.15;;;5.75;;
35518;SDS011;21627;48.216;16.482;2023-04-08T13:30:23;12.45;;;6.22;;
35518;SDS011;21627;48.216;16.482;2023-04-08T13:32:51;7.80;;;5.97;;
35518;SDS011;21627;48.216;16.482;2023-04-08T13:35:18;9.35;;;6.28;;
35518;SDS011;21627;48.216;16.482;2023-04-08T13:37:45;6.75;;;5.78;;
35518;SDS011;21627;48.216;16.482;2023-04-08T13:40:12;7.40;;;5.78;;
35518;SDS011;21627;48.216;16.482;2023-04-08T13:42:39;7.63;;;5.53;;
35518;SDS011;21627;48.216;16.482;2023-04-08T13:45:07;6.20;;;5.18;;
35518;SDS011;21627;48.216;16.482;2023-04-08T13:47:38;7.63;;;5.88;;
35518;SDS011;21627;48.216;16.482;2023-04-08T13:50:06;7.43;;;6.05;;
35518;SDS011;21627;48.216;16.482;2023-04-08T13:52:34;7.32;;;5.68;;
35518;SDS011;21627;48.216;16.482;2023-04-08T13:55:01;9.30;;;7.32;;
35518;SDS011;21627;48.216;16.482;2023-04-08T13:57:28;11.27;;;6.43;;
35518;SDS011;21627;48.216;16.482;2023-04-08T13:59:56;8.45;;;6.60;;
35518;SDS011;21627;48.216;16.482;2023-04-08T14:02:23;9.18;;;7.00;;
35518;SDS011;21627;48.216;16.482;2023-04-08T14:04:50;8.45;;;7.07;;
35518;SDS011;21627;48.216;16.482;2023-04-08T14:07:18;9.93;;;7.60;;
35518;SDS011;21627;48.216;16.482;2023-04-08T14:09:45;8.10;;;6.78;;
35518;SDS011;21627;48.216;16.482;2023-04-08T14:12:12;7.93;;;6.18;;
35518;SDS011;21627;48.216;16.482;2023-04-08T14:14:39;7.05;;;5.97;;
35518;SDS011;21627;48.216;16.482;2023-04-08T14:17:07;8.30;;;6.72;;
35518;SDS011;21627;48.216;16.482;2023-04-08T14:19:34;9.50;;;7.50;;
35518;SDS011;21627;48.216;16.482;2023-04-08T14:22:01;8.15;;;6.68;;
35518;SDS011;21627;48.216;16.482;2023-04-08T14:24:28;9.85;;;6.85;;
35518;SDS011;21627;48.216;16.482;2023-04-08T14:26:56;8.43;;;6.90;;
35518;SDS011;21627;48.216;16.482;2023-04-08T14:29:23;9.63;;;7.22;;
35518;SDS011;21627;48.216;16.482;2023-04-08T14:31:52;9.38;;;6.88;;
35518;SDS011;21627;48.216;16.482;2023-04-08T14:34:20;8.38;;;6.68;;
35518;SDS011;21627;48.216;16.482;2023-04-08T14:36:47;10.02;;;7.22;;
35518;SDS011;21627;48.216;16.482;2023-04-08T14:39:14;7.70;;;6.78;;
35518;SDS011;21627;48.216;16.482;2023-04-08T14:41:41;9.35;;;7.18;;
35518;SDS011;21627;48.216;16.482;2023-04-08T14:44:09;7.97;;;6.40;;
35518;SDS011;21627;48.216;16.482;2023-04-08T14:46:36;7.97;;;6.53;;